sensor_id;sensor_type;location;lat;lon;timestamp;P1;durP1;ratioP1;P2;durP2;ratioP2
60368;SDS011;46208;44.634;10.492;2022-11-06T00:00:45;0.30;;;0.30;;
60368;SDS011;46208;44.634;10.492;2022-11-06T00:03:52;0.30;;;0.30;;
60368;SDS011;46208;44.634;10.492;2022-11-06T00:06:56;0.40;;;0.40;;
60368;SDS011;46208;44.634;10.492;2022-11-06T00:10:00;0.30;;;0.30;;
60368;SDS011;46208;44.634;10.492;2022-11-06T00:13:04;1.27;;;0.50;;
60368;SDS011;46208;44.634;10.492;2022-11-06T00:16:08;0.43;;;0.43;;
60368;SDS011;46208;44.634;10.492;2022-11-06T00:19:13;0.30;;;0.30;;
60368;SDS011;46208;44.634;10.492;2022-11-06T00:22:17;0.50;;;0.28;;
60368;SDS011;46208;44.634;10.492;2022-11-06T00:25:21;0.38;;;0.32;;
60368;SDS011;46208;44.634;10.492;2022-11-06T00:28:25;0.70;;;0.50;;
60368;SDS011;46208;44.634;10.492;2022-11-06T00:31:30;0.45;;;0.30;;
60368;SDS011;46208;44.634;10.492;2022-11-06T00:34:34;0.35;;;0.30;;
60368;SDS011;46208;44.634;10.492;2022-11-06T00:37:38;0.25;;;0.25;;
60368;SDS011;46208;44.634;10.492;2022-11-06T00:40:42;0.30;;;0.30;;
60368;SDS011;46208;44.634;10.492;2022-11-06T00:43:50;0.20;;;0.20;;
60368;SDS011;46208;44.634;10.492;2022-11-06T00:46:57;0.40;;;0.40;;
60368;SDS011;46208;44.634;10.492;2022-11-06T00:50:00;1.67;;;0.40;;
60368;SDS011;46208;44.634;10.492;2022-11-06T00:53:04;0.40;;;0.40;;
60368;SDS011;46208;44.634;10.492;2022-11-06T00:59:13;0.52;;;0.52;;
60368;SDS011;46208;44.634;10.492;2022-11-06T01:02:17;1.25;;;0.50;;
60368;SDS011;46208;44.634;10.492;2022-11-06T01:05:21;0.55;;;0.55;;
60368;SDS011;46208;44.634;10.492;2022-11-06T01:08:25;0.30;;;0.30;;
60368;SDS011;46208;44.634;10.492;2022-11-06T01:11:33;0.45;;;0.32;;
60368;SDS011;46208;44.634;10.492;2022-11-06T01:14:38;0.35;;;0.35;;
60368;SDS011;46208;44.634;10.492;2022-11-06T01:17:42;0.30;;;0.30;;
60368;SDS011;46208;44.634;10.492;2022-11-06T01:20:46;0.20;;;0.20;;
60368;SDS011;46208;44.634;10.492;2022-11-06T01:23:52;0.43;;;0.30;;
60368;SDS011;46208;44.634;10.492;2022-11-06T01:26:56;0.55;;;0.55;;
60368;SDS011;46208;44.634;10.492;2022-11-06T01:30:00;1.20;;;0.57;;
60368;SDS011;46208;44.634;10.492;2022-11-06T01:33:04;0.28;;;0.25;;
60368;SDS011;46208;44.634;10.492;2022-11-06T01:36:09;0.52;;;0.30;;
60368;SDS011;46208;44.634;10.492;2022-11-06T01:39:14;0.38;;;0.38;;
60368;SDS011;46208;44.634;10.492;2022-11-06T01:42:18;0.65;;;0.52;;
60368;SDS011;46208;44.634;10.492;2022-11-06T01:45:24;0.55;;;0.55;;
60368;SDS011;46208;44.634;10.492;2022-11-06T01:48:32;0.40;;;0.40;;
60368;SDS011;46208;44.634;10.492;2022-11-06T01:51:37;0.45;;;0.45;;
60368;SDS011;46208;44.634;10.492;2022-11-06T01:54:45;0.30;;;0.30;;
60368;SDS011;46208;44.634;10.492;2022-11-06T01:57:51;0.20;;;0.20;;
60368;SDS011;46208;44.634;10.492;2022-11-06T02:00:55;0.30;;;0.30;;
60368;SDS011;46208;44.634;10.492;2022-11-06T02:04:04;0.20;;;0.20;;
60368;SDS011;46208;44.634;10.492;2022-11-06T02:07:12;0.20;;;0.20;;
60368;SDS011;46208;44.634;10.492;2022-11-06T02:10:15;0.30;;;0.30;;
60368;SDS011;46208;44.634;10.492;2022-11-06T02:27:12;0.10;;;0.10;;
60368;SDS011;46208;44.634;10.492;2022-11-06T02:30:18;0.20;;;0.20;;
60368;SDS011;46208;44.634;10.492;2022-11-06T02:33:25;0.30;;;0.30;;
60368;SDS011;46208;44.634;10.492;2022-11-06T02:36:32;0.30;;;0.30;;
60368;SDS011;46208;44.634;10.492;2022-11-06T02:39:39;0.25;;;0.22;;
60368;SDS011;46208;44.634;10.492;2022-11-06T02:42:45;0.20;;;0.20;;
60368;SDS011;46208;44.634;10.492;2022-11-06T02:45:56;0.20;;;0.20;;
60368;SDS011;46208;44.634;10.492;2022-11-06T02:49:06;0.50;;;0.50;;
60368;SDS011;46208;44.634;10.492;2022-11-06T02:55:41;0.20;;;0.20;;
60368;SDS011;46208;44.634;10.492;2022-11-06T02:58:54;0.25;;;0.25;;
60368;SDS011;46208;44.634;10.492;2022-11-06T03:02:05;0.32;;;0.30;;
60368;SDS011;46208;44.634;10.492;2022-11-06T03:05:13;0.40;;;0.40;;
60368;SDS011;46208;44.634;10.492;2022-11-06T03:08:31;0.40;;;0.40;;
60368;SDS011;46208;44.634;10.492;2022-11-06T03:11:37;0.20;;;0.20;;
60368;SDS011;46208;44.634;10.492;2022-11-06T03:17:59;0.30;;;0.30;;
60368;SDS011;46208;44.634;10.492;2022-11-06T03:21:12;0.30;;;0.30;;
60368;SDS011;46208;44.634;10.492;2022-11-06T03:24:32;0.10;;;0.10;;
60368;SDS011;46208;44.634;10.492;2022-11-06T03:27:48;0.20;;;0.20;;
60368;SDS011;46208;44.634;10.492;2022-11-06T03:30:55;0.85;;;0.35;;
60368;SDS011;46208;44.634;10.492;2022-11-06T03:34:02;0.20;;;0.20;;
60368;SDS011;46208;44.634;10.492;2022-11-06T03:37:15;0.30;;;0.30;;
60368;SDS011;46208;44.634;10.492;2022-11-06T03:40:22;0.20;;;0.20;;
60368;SDS011;46208;44.634;10.492;2022-11-06T03:43:29;0.22;;;0.22;;
60368;SDS011;46208;44.634;10.492;2022-11-06T03:46:40;0.20;;;0.20;;
60368;SDS011;46208;44.634;10.492;2022-11-06T03:49:52;0.30;;;0.30;;
60368;SDS011;46208;44.634;10.492;2022-11-06T03:56:24;0.20;;;0.20;;
60368;SDS011;46208;44.634;10.492;2022-11-06T03:59:37;0.20;;;0.20;;
60368;SDS011;46208;44.634;10.492;2022-11-06T04:02:45;1.13;;;0.40;;
60368;SDS011;46208;44.634;10.492;2022-11-06T04:05:55;0.30;;;0.30;;
60368;SDS011;46208;44.634;10.492;2022-11-06T04:09:04;0.30;;;0.30;;
60368;SDS011;46208;44.634;10.492;2022-11-06T04:12:27;1.50;;;0.30;;
60368;SDS011;46208;44.634;10.492;2022-11-06T04:15:51;0.40;;;0.40;;
60368;SDS011;46208;44.634;10.492;2022-11-06T04:18:56;0.47;;;0.47;;
60368;SDS011;46208;44.634;10.492;2022-11-06T04:36:10;0.20;;;0.20;;
60368;SDS011;46208;44.634;10.492;2022-11-06T04:39:30;0.30;;;0.30;;
60368;SDS011;46208;44.634;10.492;2022-11-06T04:42:58;0.20;;;0.20;;
60368;SDS011;46208;44.634;10.492;2022-11-06T04:46:05;0.30;;;0.30;;
60368;SDS011;46208;44.634;10.492;2022-11-06T04:49:10;0.88;;;0.52;;
60368;SDS011;46208;44.634;10.492;2022-11-06T04:52:16;0.28;;;0.28;;
60368;SDS011;46208;44.634;10.492;2022-11-06T04:55:22;0.30;;;0.30;;
60368;SDS011;46208;44.634;10.492;2022-11-06T04:58:26;0.20;;;0.20;;
60368;SDS011;46208;44.634;10.492;2022-11-06T05:01:30;0.47;;;0.40;;
60368;SDS011;46208;44.634;10.492;2022-11-06T05:04:33;1.02;;;0.30;;
60368;SDS011;46208;44.634;10.492;2022-11-06T05:07:37;0.20;;;0.20;;
60368;SDS011;46208;44.634;10.492;2022-11-06T05:10:41;0.30;;;0.30;;
60368;SDS011;46208;44.634;10.492;2022-11-06T05:13:45;0.50;;;0.40;;
60368;SDS011;46208;44.634;10.492;2022-11-06T05:16:49;0.30;;;0.30;;
60368;SDS011;46208;44.634;10.492;2022-11-06T05:19:52;0.20;;;0.20;;
60368;SDS011;46208;44.634;10.492;2022-11-06T05:22:56;0.52;;;0.38;;
60368;SDS011;46208;44.634;10.492;2022-11-06T05:26:00;0.30;;;0.30;;
60368;SDS011;46208;44.634;10.492;2022-11-06T05:29:04;0.70;;;0.30;;
60368;SDS011;46208;44.634;10.492;2022-11-06T05:32:08;0.20;;;0.20;;
60368;SDS011;46208;44.634;10.492;2022-11-06T05:35:12;0.20;;;0.20;;
60368;SDS011;46208;44.634;10.492;2022-11-06T05:38:15;1.00;;;1.00;;
60368;SDS011;46208;44.634;10.492;2022-11-06T05:41:19;0.20;;;0.20;;
60368;SDS011;46208;44.634;10.492;2022-11-06T05:44:23;0.20;;;0.20;;
60368;SDS011;46208;44.634;10.492;2022-11-06T05:47:27;0.40;;;0.40;;
60368;SDS011;46208;44.634;10.492;2022-11-06T05:50:31;1.42;;;0.40;;
60368;SDS011;46208;44.634;10.492;2022-11-06T05:56:43;0.20;;;0.20;;
60368;SDS011;46208;44.634;10.492;2022-11-06T05:59:47;0.43;;;0.43;;
60368;SDS011;46208;44.634;10.492;2022-11-06T06:02:51;0.30;;;0.30;;
60368;SDS011;46208;44.634;10.492;2022-11-06T06:05:55;0.28;;;0.28;;
60368;SDS011;46208;44.634;10.492;2022-11-06T06:08:58;0.68;;;0.68;;
60368;SDS011;46208;44.634;10.492;2022-11-06T06:12:02;0.30;;;0.30;;
60368;SDS011;46208;44.634;10.492;2022-11-06T06:15:06;0.30;;;0.30;;
60368;SDS011;46208;44.634;10.492;2022-11-06T06:18:11;0.50;;;0.50;;
60368;SDS011;46208;44.634;10.492;2022-11-06T06:21:15;0.30;;;0.30;;
60368;SDS011;46208;44.634;10.492;2022-11-06T06:24:19;0.40;;;0.40;;
60368;SDS011;46208;44.634;10.492;2022-11-06T06:27:22;0.70;;;0.52;;
60368;SDS011;46208;44.634;10.492;2022-11-06T06:30:29;0.52;;;0.30;;
60368;SDS011;46208;44.634;10.492;2022-11-06T06:33:34;0.30;;;0.30;;
60368;SDS011;46208;44.634;10.492;2022-11-06T06:36:38;0.28;;;0.28;;
60368;SDS011;46208;44.634;10.492;2022-11-06T06:39:41;0.73;;;0.40;;
60368;SDS011;46208;44.634;10.492;2022-11-06T06:42:45;0.40;;;0.40;;
60368;SDS011;46208;44.634;10.492;2022-11-06T06:45:49;2.65;;;0.45;;
60368;SDS011;46208;44.634;10.492;2022-11-06T06:48:53;1.02;;;0.50;;
60368;SDS011;46208;44.634;10.492;2022-11-06T06:51:57;0.57;;;0.57;;
60368;SDS011;46208;44.634;10.492;2022-11-06T06:55:00;0.40;;;0.40;;
60368;SDS011;46208;44.634;10.492;2022-11-06T06:58:04;0.60;;;0.60;;
60368;SDS011;46208;44.634;10.492;2022-11-06T07:01:08;0.98;;;0.35;;
60368;SDS011;46208;44.634;10.492;2022-11-06T07:04:13;0.30;;;0.30;;
60368;SDS011;46208;44.634;10.492;2022-11-06T07:07:16;0.25;;;0.25;;
60368;SDS011;46208;44.634;10.492;2022-11-06T07:10:20;0.73;;;0.40;;
60368;SDS011;46208;44.634;10.492;2022-11-06T07:13:24;1.40;;;0.40;;
60368;SDS011;46208;44.634;10.492;2022-11-06T07:16:28;0.40;;;0.40;;
60368;SDS011;46208;44.634;10.492;2022-11-06T07:19:32;0.30;;;0.30;;
60368;SDS011;46208;44.634;10.492;2022-11-06T07:22:36;0.35;;;0.35;;
60368;SDS011;46208;44.634;10.492;2022-11-06T07:25:40;0.63;;;0.45;;
60368;SDS011;46208;44.634;10.492;2022-11-06T07:28:43;0.43;;;0.38;;
60368;SDS011;46208;44.634;10.492;2022-11-06T07:31:47;0.57;;;0.20;;
60368;SDS011;46208;44.634;10.492;2022-11-06T07:34:51;0.30;;;0.30;;
60368;SDS011;46208;44.634;10.492;2022-11-06T07:37:55;0.40;;;0.40;;
60368;SDS011;46208;44.634;10.492;2022-11-06T07:41:00;0.80;;;0.77;;
60368;SDS011;46208;44.634;10.492;2022-11-06T07:44:05;0.40;;;0.40;;
60368;SDS011;46208;44.634;10.492;2022-11-06T07:47:09;0.75;;;0.63;;
60368;SDS011;46208;44.634;10.492;2022-11-06T07:50:13;0.50;;;0.50;;
60368;SDS011;46208;44.634;10.492;2022-11-06T07:53:17;0.95;;;0.50;;
60368;SDS011;46208;44.634;10.492;2022-11-06T07:59:55;0.85;;;0.68;;
60368;SDS011;46208;44.634;10.492;2022-11-06T08:02:59;1.05;;;0.60;;
60368;SDS011;46208;44.634;10.492;2022-11-06T08:06:03;1.02;;;0.63;;
60368;SDS011;46208;44.634;10.492;2022-11-06T08:09:10;0.80;;;0.50;;
60368;SDS011;46208;44.634;10.492;2022-11-06T08:12:14;2.03;;;1.08;;
60368;SDS011;46208;44.634;10.492;2022-11-06T08:15:17;2.13;;;1.10;;
60368;SDS011;46208;44.634;10.492;2022-11-06T08:18:21;2.08;;;0.88;;
60368;SDS011;46208;44.634;10.492;2022-11-06T08:21:25;1.63;;;1.42;;
60368;SDS011;46208;44.634;10.492;2022-11-06T08:24:29;0.98;;;0.80;;
60368;SDS011;46208;44.634;10.492;2022-11-06T08:27:33;2.97;;;0.82;;
60368;SDS011;46208;44.634;10.492;2022-11-06T08:30:36;1.23;;;0.60;;
60368;SDS011;46208;44.634;10.492;2022-11-06T08:33:40;1.40;;;0.65;;
60368;SDS011;46208;44.634;10.492;2022-11-06T08:36:44;1.05;;;1.00;;
60368;SDS011;46208;44.634;10.492;2022-11-06T08:39:48;4.07;;;0.95;;
60368;SDS011;46208;44.634;10.492;2022-11-06T08:42:52;0.90;;;0.85;;
60368;SDS011;46208;44.634;10.492;2022-11-06T08:45:56;1.70;;;1.10;;
60368;SDS011;46208;44.634;10.492;2022-11-06T08:49:01;1.00;;;0.68;;
60368;SDS011;46208;44.634;10.492;2022-11-06T08:52:06;0.40;;;0.40;;
60368;SDS011;46208;44.634;10.492;2022-11-06T08:55:10;1.02;;;0.60;;
60368;SDS011;46208;44.634;10.492;2022-11-06T08:58:13;0.50;;;0.50;;
60368;SDS011;46208;44.634;10.492;2022-11-06T09:01:17;1.17;;;0.90;;
60368;SDS011;46208;44.634;10.492;2022-11-06T09:04:21;0.80;;;0.80;;
60368;SDS011;46208;44.634;10.492;2022-11-06T09:07:25;1.25;;;1.00;;
60368;SDS011;46208;44.634;10.492;2022-11-06T09:10:29;2.20;;;0.60;;
60368;SDS011;46208;44.634;10.492;2022-11-06T09:13:32;0.50;;;0.50;;
60368;SDS011;46208;44.634;10.492;2022-11-06T09:16:36;4.55;;;1.00;;
60368;SDS011;46208;44.634;10.492;2022-11-06T09:19:40;0.40;;;0.40;;
60368;SDS011;46208;44.634;10.492;2022-11-06T09:22:45;1.75;;;0.82;;
60368;SDS011;46208;44.634;10.492;2022-11-06T09:25:49;0.50;;;0.50;;
60368;SDS011;46208;44.634;10.492;2022-11-06T09:28:53;0.57;;;0.35;;
60368;SDS011;46208;44.634;10.492;2022-11-06T09:31:56;2.08;;;0.73;;
60368;SDS011;46208;44.634;10.492;2022-11-06T09:35:00;0.32;;;0.32;;
60368;SDS011;46208;44.634;10.492;2022-11-06T09:38:06;1.33;;;0.40;;
60368;SDS011;46208;44.634;10.492;2022-11-06T09:45:02;0.40;;;0.40;;
60368;SDS011;46208;44.634;10.492;2022-11-06T09:48:25;0.55;;;0.47;;
60368;SDS011;46208;44.634;10.492;2022-11-06T09:54:47;1.35;;;0.73;;
60368;SDS011;46208;44.634;10.492;2022-11-06T09:57:55;0.70;;;0.63;;
60368;SDS011;46208;44.634;10.492;2022-11-06T10:01:01;1.33;;;1.20;;
60368;SDS011;46208;44.634;10.492;2022-11-06T10:04:17;0.80;;;0.57;;
60368;SDS011;46208;44.634;10.492;2022-11-06T10:07:43;1.60;;;0.70;;
60368;SDS011;46208;44.634;10.492;2022-11-06T10:14:37;0.77;;;0.68;;
60368;SDS011;46208;44.634;10.492;2022-11-06T10:20:53;1.45;;;0.90;;
60368;SDS011;46208;44.634;10.492;2022-11-06T10:24:01;1.08;;;0.80;;
60368;SDS011;46208;44.634;10.492;2022-11-06T10:27:27;0.47;;;0.47;;
60368;SDS011;46208;44.634;10.492;2022-11-06T10:30:42;1.27;;;0.88;;
60368;SDS011;46208;44.634;10.492;2022-11-06T10:40:49;0.98;;;0.60;;
60368;SDS011;46208;44.634;10.492;2022-11-06T10:43:56;0.85;;;0.65;;
60368;SDS011;46208;44.634;10.492;2022-11-06T10:47:09;2.28;;;1.10;;
60368;SDS011;46208;44.634;10.492;2022-11-06T10:50:27;1.38;;;0.80;;
60368;SDS011;46208;44.634;10.492;2022-11-06T11:00:10;2.03;;;1.08;;
60368;SDS011;46208;44.634;10.492;2022-11-06T11:03:21;2.63;;;1.42;;
60368;SDS011;46208;44.634;10.492;2022-11-06T11:06:27;2.08;;;1.48;;
60368;SDS011;46208;44.634;10.492;2022-11-06T11:09:32;0.90;;;0.90;;
60368;SDS011;46208;44.634;10.492;2022-11-06T11:12:36;1.30;;;0.70;;
60368;SDS011;46208;44.634;10.492;2022-11-06T11:15:43;1.60;;;1.02;;
60368;SDS011;46208;44.634;10.492;2022-11-06T11:18:48;0.82;;;0.73;;
60368;SDS011;46208;44.634;10.492;2022-11-06T11:21:56;1.13;;;0.55;;
60368;SDS011;46208;44.634;10.492;2022-11-06T11:25:05;1.48;;;0.85;;
60368;SDS011;46208;44.634;10.492;2022-11-06T11:31:30;1.20;;;1.10;;
60368;SDS011;46208;44.634;10.492;2022-11-06T11:34:36;1.48;;;0.95;;
60368;SDS011;46208;44.634;10.492;2022-11-06T11:37:47;0.75;;;0.75;;
60368;SDS011;46208;44.634;10.492;2022-11-06T11:40:51;2.13;;;1.90;;
60368;SDS011;46208;44.634;10.492;2022-11-06T11:44:15;1.63;;;1.00;;
60368;SDS011;46208;44.634;10.492;2022-11-06T11:47:23;1.27;;;1.05;;
60368;SDS011;46208;44.634;10.492;2022-11-06T11:53:32;2.38;;;1.10;;
60368;SDS011;46208;44.634;10.492;2022-11-06T11:56:42;2.92;;;1.38;;
60368;SDS011;46208;44.634;10.492;2022-11-06T11:59:49;3.70;;;1.33;;
60368;SDS011;46208;44.634;10.492;2022-11-06T12:02:58;1.60;;;1.30;;
60368;SDS011;46208;44.634;10.492;2022-11-06T12:06:09;2.53;;;1.55;;
60368;SDS011;46208;44.634;10.492;2022-11-06T12:09:14;1.55;;;1.40;;
60368;SDS011;46208;44.634;10.492;2022-11-06T12:12:19;2.08;;;1.55;;
60368;SDS011;46208;44.634;10.492;2022-11-06T12:18:52;2.13;;;1.92;;
60368;SDS011;46208;44.634;10.492;2022-11-06T12:22:00;3.47;;;1.33;;
60368;SDS011;46208;44.634;10.492;2022-11-06T12:28:28;1.50;;;1.20;;
60368;SDS011;46208;44.634;10.492;2022-11-06T12:38:47;1.75;;;1.48;;
60368;SDS011;46208;44.634;10.492;2022-11-06T12:42:12;1.80;;;1.42;;
60368;SDS011;46208;44.634;10.492;2022-11-06T12:45:16;4.40;;;1.63;;
60368;SDS011;46208;44.634;10.492;2022-11-06T12:58:21;1.50;;;1.40;;
60368;SDS011;46208;44.634;10.492;2022-11-06T13:18:29;1.77;;;1.58;;
60368;SDS011;46208;44.634;10.492;2022-11-06T13:28:25;1.90;;;1.27;;
60368;SDS011;46208;44.634;10.492;2022-11-06T13:32:17;5.55;;;2.28;;
60368;SDS011;46208;44.634;10.492;2022-11-06T13:35:04;2.75;;;1.90;;
60368;SDS011;46208;44.634;10.492;2022-11-06T13:38:13;1.92;;;1.67;;
60368;SDS011;46208;44.634;10.492;2022-11-06T13:41:28;2.58;;;1.52;;
60368;SDS011;46208;44.634;10.492;2022-11-06T13:44:46;2.72;;;1.50;;
60368;SDS011;46208;44.634;10.492;2022-11-06T14:09:13;1.23;;;1.23;;
60368;SDS011;46208;44.634;10.492;2022-11-06T14:54:39;3.03;;;1.95;;
60368;SDS011;46208;44.634;10.492;2022-11-06T14:57:53;2.22;;;2.00;;
60368;SDS011;46208;44.634;10.492;2022-11-06T15:01:11;5.45;;;3.70;;
60368;SDS011;46208;44.634;10.492;2022-11-06T15:04:18;5.13;;;3.90;;
60368;SDS011;46208;44.634;10.492;2022-11-06T15:10:47;3.10;;;2.47;;
60368;SDS011;46208;44.634;10.492;2022-11-06T15:33:10;2.80;;;2.15;;
60368;SDS011;46208;44.634;10.492;2022-11-06T15:36:19;2.50;;;2.08;;
60368;SDS011;46208;44.634;10.492;2022-11-06T15:42:34;5.03;;;1.98;;
60368;SDS011;46208;44.634;10.492;2022-11-06T15:45:40;3.47;;;1.90;;
60368;SDS011;46208;44.634;10.492;2022-11-06T15:48:45;3.58;;;1.85;;
60368;SDS011;46208;44.634;10.492;2022-11-06T15:51:52;3.20;;;1.67;;
60368;SDS011;46208;44.634;10.492;2022-11-06T15:54:58;6.47;;;2.95;;
60368;SDS011;46208;44.634;10.492;2022-11-06T15:58:05;4.30;;;1.77;;
60368;SDS011;46208;44.634;10.492;2022-11-06T16:01:30;3.35;;;1.90;;
60368;SDS011;46208;44.634;10.492;2022-11-06T16:04:35;1.42;;;1.33;;
60368;SDS011;46208;44.634;10.492;2022-11-06T16:07:39;2.80;;;2.22;;
60368;SDS011;46208;44.634;10.492;2022-11-06T16:10:44;2.65;;;1.73;;
60368;SDS011;46208;44.634;10.492;2022-11-06T16:13:52;7.15;;;2.33;;
60368;SDS011;46208;44.634;10.492;2022-11-06T16:16:56;3.05;;;1.60;;
60368;SDS011;46208;44.634;10.492;2022-11-06T16:26:43;1.83;;;1.48;;
60368;SDS011;46208;44.634;10.492;2022-11-06T16:29:56;2.40;;;2.20;;
60368;SDS011;46208;44.634;10.492;2022-11-06T16:33:03;2.22;;;1.42;;
60368;SDS011;46208;44.634;10.492;2022-11-06T16:36:18;2.63;;;1.63;;
60368;SDS011;46208;44.634;10.492;2022-11-06T16:42:31;4.40;;;2.67;;
60368;SDS011;46208;44.634;10.492;2022-11-06T16:45:55;5.05;;;2.58;;
60368;SDS011;46208;44.634;10.492;2022-11-06T16:52:27;4.53;;;2.00;;
60368;SDS011;46208;44.634;10.492;2022-11-06T17:18:45;4.90;;;2.17;;
60368;SDS011;46208;44.634;10.492;2022-11-06T17:44:51;3.20;;;2.28;;
60368;SDS011;46208;44.634;10.492;2022-11-06T17:47:54;4.38;;;2.78;;
60368;SDS011;46208;44.634;10.492;2022-11-06T17:50:58;3.70;;;3.33;;
60368;SDS011;46208;44.634;10.492;2022-11-06T17:54:21;3.13;;;2.33;;
60368;SDS011;46208;44.634;10.492;2022-11-06T17:57:26;2.05;;;1.80;;
60368;SDS011;46208;44.634;10.492;2022-11-06T18:00:30;3.88;;;1.83;;
60368;SDS011;46208;44.634;10.492;2022-11-06T18:03:40;2.80;;;1.90;;
60368;SDS011;46208;44.634;10.492;2022-11-06T18:06:46;6.68;;;2.85;;
60368;SDS011;46208;44.634;10.492;2022-11-06T18:09:51;8.95;;;3.03;;
60368;SDS011;46208;44.634;10.492;2022-11-06T18:12:55;4.72;;;2.17;;
60368;SDS011;46208;44.634;10.492;2022-11-06T18:15:59;4.35;;;2.95;;
60368;SDS011;46208;44.634;10.492;2022-11-06T18:19:10;7.82;;;3.65;;
60368;SDS011;46208;44.634;10.492;2022-11-06T18:22:14;4.43;;;2.85;;
60368;SDS011;46208;44.634;10.492;2022-11-06T18:25:18;14.70;;;7.20;;
60368;SDS011;46208;44.634;10.492;2022-11-06T18:28:23;6.05;;;3.42;;
60368;SDS011;46208;44.634;10.492;2022-11-06T18:31:27;5.07;;;2.50;;
60368;SDS011;46208;44.634;10.492;2022-11-06T18:34:31;2.17;;;1.98;;
60368;SDS011;46208;44.634;10.492;2022-11-06T18:37:34;2.15;;;2.00;;
60368;SDS011;46208;44.634;10.492;2022-11-06T18:40:39;2.22;;;1.85;;
60368;SDS011;46208;44.634;10.492;2022-11-06T18:43:43;3.92;;;1.77;;
60368;SDS011;46208;44.634;10.492;2022-11-06T18:46:47;3.08;;;2.03;;
60368;SDS011;46208;44.634;10.492;2022-11-06T18:49:50;3.53;;;2.38;;
60368;SDS011;46208;44.634;10.492;2022-11-06T18:52:54;3.10;;;2.25;;
60368;SDS011;46208;44.634;10.492;2022-11-06T18:55:58;1.30;;;1.20;;
60368;SDS011;46208;44.634;10.492;2022-11-06T18:59:03;4.03;;;2.10;;
60368;SDS011;46208;44.634;10.492;2022-11-06T19:02:08;1.42;;;1.33;;
60368;SDS011;46208;44.634;10.492;2022-11-06T19:05:11;1.75;;;1.50;;
60368;SDS011;46208;44.634;10.492;2022-11-06T19:08:16;3.47;;;2.55;;
60368;SDS011;46208;44.634;10.492;2022-11-06T19:11:20;3.60;;;1.98;;
60368;SDS011;46208;44.634;10.492;2022-11-06T19:14:24;2.83;;;1.67;;
60368;SDS011;46208;44.634;10.492;2022-11-06T19:17:27;3.40;;;2.47;;
60368;SDS011;46208;44.634;10.492;2022-11-06T19:20:31;2.17;;;2.08;;
60368;SDS011;46208;44.634;10.492;2022-11-06T19:23:35;1.40;;;1.15;;
60368;SDS011;46208;44.634;10.492;2022-11-06T19:26:40;1.95;;;1.48;;
60368;SDS011;46208;44.634;10.492;2022-11-06T19:29:43;0.80;;;0.65;;
60368;SDS011;46208;44.634;10.492;2022-11-06T19:32:47;3.30;;;1.45;;
60368;SDS011;46208;44.634;10.492;2022-11-06T19:35:51;3.65;;;1.42;;
60368;SDS011;46208;44.634;10.492;2022-11-06T19:38:56;4.50;;;1.40;;
60368;SDS011;46208;44.634;10.492;2022-11-06T19:42:01;1.13;;;1.02;;
60368;SDS011;46208;44.634;10.492;2022-11-06T19:45:05;1.38;;;1.27;;
60368;SDS011;46208;44.634;10.492;2022-11-06T19:48:10;3.50;;;2.97;;
60368;SDS011;46208;44.634;10.492;2022-11-06T19:51:15;2.58;;;1.42;;
60368;SDS011;46208;44.634;10.492;2022-11-06T19:54:19;1.40;;;1.30;;
60368;SDS011;46208;44.634;10.492;2022-11-06T19:57:23;1.40;;;1.30;;
60368;SDS011;46208;44.634;10.492;2022-11-06T20:00:27;1.90;;;1.60;;
60368;SDS011;46208;44.634;10.492;2022-11-06T20:03:30;3.15;;;2.75;;
60368;SDS011;46208;44.634;10.492;2022-11-06T20:06:34;4.68;;;1.85;;
60368;SDS011;46208;44.634;10.492;2022-11-06T20:09:41;3.05;;;2.67;;
60368;SDS011;46208;44.634;10.492;2022-11-06T20:12:45;4.60;;;1.88;;
60368;SDS011;46208;44.634;10.492;2022-11-06T20:15:48;3.28;;;2.20;;
60368;SDS011;46208;44.634;10.492;2022-11-06T20:18:56;1.67;;;1.58;;
60368;SDS011;46208;44.634;10.492;2022-11-06T20:22:00;3.58;;;1.73;;
60368;SDS011;46208;44.634;10.492;2022-11-06T20:25:04;3.17;;;1.58;;
60368;SDS011;46208;44.634;10.492;2022-11-06T20:28:09;1.83;;;1.73;;
60368;SDS011;46208;44.634;10.492;2022-11-06T20:31:13;2.67;;;1.75;;
60368;SDS011;46208;44.634;10.492;2022-11-06T20:34:17;2.40;;;2.08;;
60368;SDS011;46208;44.634;10.492;2022-11-06T20:37:21;3.35;;;2.55;;
60368;SDS011;46208;44.634;10.492;2022-11-06T20:40:25;2.13;;;1.55;;
60368;SDS011;46208;44.634;10.492;2022-11-06T20:43:29;4.47;;;2.63;;
60368;SDS011;46208;44.634;10.492;2022-11-06T20:46:33;1.45;;;0.93;;
60368;SDS011;46208;44.634;10.492;2022-11-06T20:49:37;2.60;;;1.80;;
60368;SDS011;46208;44.634;10.492;2022-11-06T20:52:40;2.42;;;2.10;;
60368;SDS011;46208;44.634;10.492;2022-11-06T20:55:45;5.57;;;1.83;;
60368;SDS011;46208;44.634;10.492;2022-11-06T20:58:48;2.75;;;1.85;;
60368;SDS011;46208;44.634;10.492;2022-11-06T21:01:52;5.78;;;1.80;;
60368;SDS011;46208;44.634;10.492;2022-11-06T21:04:56;1.58;;;1.25;;
60368;SDS011;46208;44.634;10.492;2022-11-06T21:08:00;2.95;;;2.13;;
60368;SDS011;46208;44.634;10.492;2022-11-06T21:11:07;3.05;;;1.77;;
60368;SDS011;46208;44.634;10.492;2022-11-06T21:14:14;2.65;;;1.95;;
60368;SDS011;46208;44.634;10.492;2022-11-06T21:17:18;2.33;;;1.83;;
60368;SDS011;46208;44.634;10.492;2022-11-06T21:20:21;4.07;;;1.67;;
60368;SDS011;46208;44.634;10.492;2022-11-06T21:23:25;2.03;;;1.55;;
60368;SDS011;46208;44.634;10.492;2022-11-06T21:26:30;4.72;;;2.50;;
60368;SDS011;46208;44.634;10.492;2022-11-06T21:29:35;4.00;;;2.00;;
60368;SDS011;46208;44.634;10.492;2022-11-06T21:32:39;7.57;;;3.10;;
60368;SDS011;46208;44.634;10.492;2022-11-06T21:35:43;3.67;;;3.30;;
60368;SDS011;46208;44.634;10.492;2022-11-06T21:38:47;2.25;;;2.05;;
60368;SDS011;46208;44.634;10.492;2022-11-06T21:41:51;3.25;;;2.95;;
60368;SDS011;46208;44.634;10.492;2022-11-06T21:44:55;5.88;;;2.35;;
60368;SDS011;46208;44.634;10.492;2022-11-06T21:47:58;4.38;;;2.30;;
60368;SDS011;46208;44.634;10.492;2022-11-06T21:51:09;1.85;;;1.67;;
60368;SDS011;46208;44.634;10.492;2022-11-06T21:54:14;2.45;;;1.88;;
60368;SDS011;46208;44.634;10.492;2022-11-06T21:57:53;2.17;;;1.98;;
60368;SDS011;46208;44.634;10.492;2022-11-06T22:00:56;1.23;;;1.13;;
60368;SDS011;46208;44.634;10.492;2022-11-06T22:04:00;1.67;;;1.00;;
60368;SDS011;46208;44.634;10.492;2022-11-06T22:07:04;4.13;;;1.77;;
60368;SDS011;46208;44.634;10.492;2022-11-06T22:10:08;3.40;;;1.77;;
60368;SDS011;46208;44.634;10.492;2022-11-06T22:13:11;1.95;;;1.58;;
60368;SDS011;46208;44.634;10.492;2022-11-06T22:16:17;4.78;;;1.13;;
60368;SDS011;46208;44.634;10.492;2022-11-06T22:19:22;2.17;;;1.38;;
60368;SDS011;46208;44.634;10.492;2022-11-06T22:22:26;3.40;;;1.17;;
60368;SDS011;46208;44.634;10.492;2022-11-06T22:25:30;1.50;;;1.40;;
60368;SDS011;46208;44.634;10.492;2022-11-06T22:28:34;1.33;;;0.98;;
60368;SDS011;46208;44.634;10.492;2022-11-06T22:31:38;1.10;;;1.10;;
60368;SDS011;46208;44.634;10.492;2022-11-06T22:34:42;0.57;;;0.55;;
60368;SDS011;46208;44.634;10.492;2022-11-06T22:37:46;0.80;;;0.80;;
60368;SDS011;46208;44.634;10.492;2022-11-06T22:40:51;0.55;;;0.55;;
60368;SDS011;46208;44.634;10.492;2022-11-06T22:43:58;0.60;;;0.60;;
60368;SDS011;46208;44.634;10.492;2022-11-06T22:47:01;2.58;;;1.67;;
60368;SDS011;46208;44.634;10.492;2022-11-06T22:50:05;0.98;;;0.98;;
60368;SDS011;46208;44.634;10.492;2022-11-06T22:53:09;0.73;;;0.73;;
60368;SDS011;46208;44.634;10.492;2022-11-06T22:56:13;0.80;;;0.75;;
60368;SDS011;46208;44.634;10.492;2022-11-06T22:59:17;3.10;;;0.98;;
60368;SDS011;46208;44.634;10.492;2022-11-06T23:02:22;3.08;;;0.60;;